createdAt,value
2023-02-06T16:53:34.748Z,71.41
2023-02-06T16:57:45.077Z,70.71
2023-02-06T17:02:31.016Z,70.22
2023-02-06T17:16:07.584Z,69.64
2023-02-06T17:20:38.915Z,69.33
2023-02-06T17:24:42.552Z,69.46
2023-02-06T17:28:46.460Z,69.88
2023-02-06T17:33:53.332Z,69.48
2023-02-06T17:37:56.419Z,69.77
2023-02-06T17:42:03.684Z,70.15
2023-02-06T17:46:07.535Z,70.39
2023-02-06T17:50:39.159Z,70.77
2023-02-06T17:54:42.915Z,71.06
2023-02-06T17:58:52.209Z,71.77
2023-02-06T18:02:58.110Z,72.49
2023-02-06T18:08:06.717Z,73.03
2023-02-06T18:12:09.907Z,72.87
2023-02-06T18:17:28.324Z,72.51
2023-02-06T18:21:36.869Z,72.85
2023-02-06T18:25:43.438Z,73.24
2023-02-06T18:29:50.224Z,72.86
2023-02-06T18:33:54.418Z,73.07
2023-02-06T18:37:57.473Z,72.87
2023-02-06T18:42:22.358Z,72.72
2023-02-06T18:46:25.522Z,72.91
2023-02-06T18:50:39.499Z,72.93
2023-02-06T18:54:42.715Z,72.90
2023-02-06T18:58:50.965Z,72.92
2023-02-06T19:02:54.679Z,72.78
2023-02-06T19:06:57.731Z,72.91
2023-02-06T19:11:00.738Z,72.72
2023-02-06T19:15:04.945Z,72.68
2023-02-06T19:19:07.977Z,73.21
2023-02-06T19:23:11.008Z,73.36
2023-02-06T19:27:17.455Z,73.73
2023-02-06T19:31:24.115Z,73.65
2023-02-06T19:35:28.499Z,73.78
2023-02-06T19:45:35.231Z,72.67
2023-02-06T19:49:38.951Z,72.67
2023-02-06T19:59:27.090Z,76.03
2023-02-06T20:04:03.543Z,76.04
2023-02-06T20:08:06.553Z,75.96
2023-02-06T20:12:15.327Z,76.24
2023-02-06T20:16:21.453Z,76.21
2023-02-06T20:20:25.083Z,76.21
2023-02-06T20:24:32.602Z,76.01
2023-02-06T20:28:57.729Z,75.84
2023-02-06T20:33:00.725Z,76.20
2023-02-06T20:37:18.653Z,76.43
2023-02-06T20:41:23.002Z,76.23
2023-02-06T20:45:34.356Z,76.47
2023-02-06T20:49:37.739Z,76.62
2023-02-06T20:54:07.136Z,76.85
2023-02-06T20:58:11.154Z,76.86
2023-02-06T21:02:51.431Z,76.78
2023-02-06T21:06:56.548Z,76.34
2023-02-06T21:10:59.659Z,76.41
2023-02-06T21:15:15.256Z,76.62
2023-02-06T21:19:46.639Z,76.83
2023-02-06T21:23:49.778Z,77.72
2023-02-06T21:27:54.042Z,77.80
2023-02-06T21:32:12.196Z,77.88
2023-02-06T21:36:16.539Z,77.98
2023-02-06T21:41:00.815Z,78.03
2023-02-06T21:45:04.433Z,78.26
2023-02-06T21:54:55.877Z,78.50
2023-02-06T21:58:58.977Z,78.86
2023-02-06T22:04:00.066Z,78.91
2023-02-06T22:08:03.707Z,78.36
2023-02-06T22:12:07.617Z,77.87
2023-02-06T22:16:12.969Z,77.84
2023-02-06T22:20:16.463Z,78.56
2023-02-06T22:24:20.124Z,78.98
2023-02-06T22:28:31.732Z,79.29
2023-02-06T22:32:38.723Z,79.09
2023-02-06T22:36:44.072Z,78.96
2023-02-06T22:40:47.887Z,79.35
2023-02-06T22:44:52.164Z,78.83
2023-02-06T22:48:56.755Z,78.61
2023-02-06T22:53:18.616Z,78.63
2023-02-06T22:57:22.244Z,78.16
2023-02-06T23:01:30.770Z,77.57
2023-02-06T23:05:36.087Z,77.59
2023-02-06T23:09:40.817Z,78.53
2023-02-06T23:13:44.434Z,81.01
2023-02-06T23:17:49.788Z,81.48
2023-02-06T23:21:53.223Z,81.36
2023-02-06T23:25:59.186Z,81.23
2023-02-06T23:30:02.891Z,81.59
2023-02-06T23:34:06.515Z,81.72
2023-02-06T23:38:11.395Z,80.86
2023-02-06T23:42:14.982Z,79.78
2023-02-06T23:46:20.326Z,79.52
2023-02-06T23:50:25.129Z,79.82
2023-02-06T23:54:28.715Z,79.74
2023-02-06T23:58:32.550Z,79.99
